sensor_id;sensor_type;location;lat;lon;timestamp;P1;P2;P0
77777;PMS5003;66966;-34.746;138.604;2023-05-07T00:00:56;4;4;
77777;PMS5003;66966;-34.746;138.604;2023-05-07T00:05:48;4;4;
77777;PMS5003;66966;-34.746;138.604;2023-05-07T00:08:14;3;3;
77777;PMS5003;66966;-34.746;138.604;2023-05-07T00:10:40;2;2;
77777;PMS5003;66966;-34.746;138.604;2023-05-07T00:13:05;2;2;
77777;PMS5003;66966;-34.746;138.604;2023-05-07T00:15:31;3;2;
77777;PMS5003;66966;-34.746;138.604;2023-05-07T00:17:57;4;3;
77777;PMS5003;66966;-34.746;138.604;2023-05-07T00:20:23;3;2;
77777;PMS5003;66966;-34.746;138.604;2023-05-07T00:22:49;3;3;
77777;PMS5003;66966;-34.746;138.604;2023-05-07T00:25:14;3;2;
77777;PMS5003;66966;-34.746;138.604;2023-05-07T00:27:40;2;2;
77777;PMS5003;66966;-34.746;138.604;2023-05-07T00:30:06;3;2;
77777;PMS5003;66966;-34.746;138.604;2023-05-07T00:32:32;2;1;
77777;PMS5003;66966;-34.746;138.604;2023-05-07T00:34:58;3;2;
77777;PMS5003;66966;-34.746;138.604;2023-05-07T00:37:23;2;2;
77777;PMS5003;66966;-34.746;138.604;2023-05-07T00:39:49;2;2;
77777;PMS5003;66966;-34.746;138.604;2023-05-07T00:42:15;4;4;
77777;PMS5003;66966;-34.746;138.604;2023-05-07T00:44:41;3;3;
77777;PMS5003;66966;-34.746;138.604;2023-05-07T00:47:07;2;2;
77777;PMS5003;66966;-34.746;138.604;2023-05-07T00:49:34;1;1;
77777;PMS5003;66966;-34.746;138.604;2023-05-07T00:51:58;2;2;
77777;PMS5003;66966;-34.746;138.604;2023-05-07T00:54:24;2;2;
77777;PMS5003;66966;-34.746;138.604;2023-05-07T00:56:50;2;2;
77777;PMS5003;66966;-34.746;138.604;2023-05-07T00:59:15;2;2;
77777;PMS5003;66966;-34.746;138.604;2023-05-07T01:01:41;2;2;
77777;PMS5003;66966;-34.746;138.604;2023-05-07T01:04:07;1;1;
77777;PMS5003;66966;-34.746;138.604;2023-05-07T01:06:32;1;1;
77777;PMS5003;66966;-34.746;138.604;2023-05-07T01:08:59;1;1;
77777;PMS5003;66966;-34.746;138.604;2023-05-07T01:11:24;1;0;
77777;PMS5003;66966;-34.746;138.604;2023-05-07T01:13:50;1;1;
77777;PMS5003;66966;-34.746;138.604;2023-05-07T01:16:15;1;1;
77777;PMS5003;66966;-34.746;138.604;2023-05-07T01:18:41;2;1;
77777;PMS5003;66966;-34.746;138.604;2023-05-07T01:21:07;1;1;
77777;PMS5003;66966;-34.746;138.604;2023-05-07T01:23:32;1;1;
77777;PMS5003;66966;-34.746;138.604;2023-05-07T01:25:59;1;1;
77777;PMS5003;66966;-34.746;138.604;2023-05-07T01:28:24;2;2;
77777;PMS5003;66966;-34.746;138.604;2023-05-07T01:30:53;1;1;
77777;PMS5003;66966;-34.746;138.604;2023-05-07T01:33:17;3;2;
77777;PMS5003;66966;-34.746;138.604;2023-05-07T01:35:41;2;2;
77777;PMS5003;66966;-34.746;138.604;2023-05-07T01:38:07;2;2;
77777;PMS5003;66966;-34.746;138.604;2023-05-07T01:40:33;2;1;
77777;PMS5003;66966;-34.746;138.604;2023-05-07T01:42:58;1;1;
77777;PMS5003;66966;-34.746;138.604;2023-05-07T01:45:24;2;2;
77777;PMS5003;66966;-34.746;138.604;2023-05-07T01:47:49;1;1;
77777;PMS5003;66966;-34.746;138.604;2023-05-07T01:50:15;1;1;
77777;PMS5003;66966;-34.746;138.604;2023-05-07T01:52:40;3;3;
77777;PMS5003;66966;-34.746;138.604;2023-05-07T01:55:07;2;2;
77777;PMS5003;66966;-34.746;138.604;2023-05-07T01:57:32;3;1;
77777;PMS5003;66966;-34.746;138.604;2023-05-07T01:59:58;0;0;
77777;PMS5003;66966;-34.746;138.604;2023-05-07T02:02:23;1;1;
77777;PMS5003;66966;-34.746;138.604;2023-05-07T02:04:49;2;1;
77777;PMS5003;66966;-34.746;138.604;2023-05-07T02:07:15;1;0;
77777;PMS5003;66966;-34.746;138.604;2023-05-07T02:09:52;1;1;
77777;PMS5003;66966;-34.746;138.604;2023-05-07T02:12:06;1;1;
77777;PMS5003;66966;-34.746;138.604;2023-05-07T02:14:31;2;2;
77777;PMS5003;66966;-34.746;138.604;2023-05-07T02:16:56;0;0;
77777;PMS5003;66966;-34.746;138.604;2023-05-07T02:19:22;2;1;
77777;PMS5003;66966;-34.746;138.604;2023-05-07T02:21:48;3;1;
77777;PMS5003;66966;-34.746;138.604;2023-05-07T02:24:13;1;1;
77777;PMS5003;66966;-34.746;138.604;2023-05-07T02:26:39;3;2;
77777;PMS5003;66966;-34.746;138.604;2023-05-07T02:29:04;3;2;
77777;PMS5003;66966;-34.746;138.604;2023-05-07T02:31:30;1;0;
77777;PMS5003;66966;-34.746;138.604;2023-05-07T02:33:56;1;1;
77777;PMS5003;66966;-34.746;138.604;2023-05-07T02:36:21;0;0;
77777;PMS5003;66966;-34.746;138.604;2023-05-07T02:38:47;1;0;
77777;PMS5003;66966;-34.746;138.604;2023-05-07T02:41:13;0;0;
77777;PMS5003;66966;-34.746;138.604;2023-05-07T02:43:38;1;1;
77777;PMS5003;66966;-34.746;138.604;2023-05-07T02:46:04;1;1;
77777;PMS5003;66966;-34.746;138.604;2023-05-07T02:48:29;0;0;
77777;PMS5003;66966;-34.746;138.604;2023-05-07T02:50:55;1;1;
77777;PMS5003;66966;-34.746;138.604;2023-05-07T02:53:20;0;0;
77777;PMS5003;66966;-34.746;138.604;2023-05-07T02:55:47;0;0;
77777;PMS5003;66966;-34.746;138.604;2023-05-07T02:58:12;0;0;
77777;PMS5003;66966;-34.746;138.604;2023-05-07T03:00:37;0;0;
77777;PMS5003;66966;-34.746;138.604;2023-05-07T03:03:03;0;0;
77777;PMS5003;66966;-34.746;138.604;2023-05-07T03:05:29;1;1;
77777;PMS5003;66966;-34.746;138.604;2023-05-07T03:07:55;0;0;
77777;PMS5003;66966;-34.746;138.604;2023-05-07T03:10:20;0;0;
77777;PMS5003;66966;-34.746;138.604;2023-05-07T03:12:45;0;0;
77777;PMS5003;66966;-34.746;138.604;2023-05-07T03:15:11;0;0;
77777;PMS5003;66966;-34.746;138.604;2023-05-07T03:17:37;0;0;
77777;PMS5003;66966;-34.746;138.604;2023-05-07T03:20:03;0;0;
77777;PMS5003;66966;-34.746;138.604;2023-05-07T03:22:28;0;0;
77777;PMS5003;66966;-34.746;138.604;2023-05-07T03:24:54;0;0;
77777;PMS5003;66966;-34.746;138.604;2023-05-07T03:27:19;0;0;
77777;PMS5003;66966;-34.746;138.604;2023-05-07T03:29:45;0;0;
77777;PMS5003;66966;-34.746;138.604;2023-05-07T03:32:11;1;0;
77777;PMS5003;66966;-34.746;138.604;2023-05-07T03:34:36;0;0;
77777;PMS5003;66966;-34.746;138.604;2023-05-07T03:37:01;0;0;
77777;PMS5003;66966;-34.746;138.604;2023-05-07T03:39:27;0;0;
77777;PMS5003;66966;-34.746;138.604;2023-05-07T03:41:53;0;0;
77777;PMS5003;66966;-34.746;138.604;2023-05-07T03:44:18;0;0;
77777;PMS5003;66966;-34.746;138.604;2023-05-07T03:46:44;0;0;
77777;PMS5003;66966;-34.746;138.604;2023-05-07T03:49:09;0;0;
77777;PMS5003;66966;-34.746;138.604;2023-05-07T03:51:35;2;2;
77777;PMS5003;66966;-34.746;138.604;2023-05-07T03:54:00;0;0;
77777;PMS5003;66966;-34.746;138.604;2023-05-07T03:56:26;0;0;
77777;PMS5003;66966;-34.746;138.604;2023-05-07T03:58:51;0;0;
77777;PMS5003;66966;-34.746;138.604;2023-05-07T04:01:17;0;0;
77777;PMS5003;66966;-34.746;138.604;2023-05-07T04:03:43;0;0;
77777;PMS5003;66966;-34.746;138.604;2023-05-07T04:06:08;0;0;
77777;PMS5003;66966;-34.746;138.604;2023-05-07T04:08:34;1;0;
77777;PMS5003;66966;-34.746;138.604;2023-05-07T04:10:59;1;0;
77777;PMS5003;66966;-34.746;138.604;2023-05-07T04:13:25;0;0;
77777;PMS5003;66966;-34.746;138.604;2023-05-07T04:15:50;0;0;
77777;PMS5003;66966;-34.746;138.604;2023-05-07T04:18:16;0;0;
77777;PMS5003;66966;-34.746;138.604;2023-05-07T04:20:42;0;0;
77777;PMS5003;66966;-34.746;138.604;2023-05-07T04:23:07;0;0;
77777;PMS5003;66966;-34.746;138.604;2023-05-07T04:25:32;0;0;
77777;PMS5003;66966;-34.746;138.604;2023-05-07T04:27:58;0;0;
77777;PMS5003;66966;-34.746;138.604;2023-05-07T04:30:23;2;1;
77777;PMS5003;66966;-34.746;138.604;2023-05-07T04:32:49;1;0;
77777;PMS5003;66966;-34.746;138.604;2023-05-07T04:35:15;0;0;
77777;PMS5003;66966;-34.746;138.604;2023-05-07T04:37:40;0;0;
77777;PMS5003;66966;-34.746;138.604;2023-05-07T04:40:06;0;0;
77777;PMS5003;66966;-34.746;138.604;2023-05-07T04:42:31;0;0;
77777;PMS5003;66966;-34.746;138.604;2023-05-07T04:44:57;0;0;
77777;PMS5003;66966;-34.746;138.604;2023-05-07T04:47:22;0;0;
77777;PMS5003;66966;-34.746;138.604;2023-05-07T04:49:48;0;0;
77777;PMS5003;66966;-34.746;138.604;2023-05-07T04:52:13;0;0;
77777;PMS5003;66966;-34.746;138.604;2023-05-07T04:54:39;0;0;
77777;PMS5003;66966;-34.746;138.604;2023-05-07T04:57:05;0;0;
77777;PMS5003;66966;-34.746;138.604;2023-05-07T04:59:30;0;0;
77777;PMS5003;66966;-34.746;138.604;2023-05-07T05:01:55;0;0;
77777;PMS5003;66966;-34.746;138.604;2023-05-07T05:04:21;1;0;
77777;PMS5003;66966;-34.746;138.604;2023-05-07T05:06:46;0;0;
77777;PMS5003;66966;-34.746;138.604;2023-05-07T05:09:12;1;1;
77777;PMS5003;66966;-34.746;138.604;2023-05-07T05:11:37;0;0;
77777;PMS5003;66966;-34.746;138.604;2023-05-07T05:14:03;0;0;
77777;PMS5003;66966;-34.746;138.604;2023-05-07T05:16:29;1;1;
77777;PMS5003;66966;-34.746;138.604;2023-05-07T05:18:54;1;0;
77777;PMS5003;66966;-34.746;138.604;2023-05-07T05:21:21;2;1;
77777;PMS5003;66966;-34.746;138.604;2023-05-07T05:23:45;0;0;
77777;PMS5003;66966;-34.746;138.604;2023-05-07T05:26:10;0;0;
77777;PMS5003;66966;-34.746;138.604;2023-05-07T05:28:36;0;0;
77777;PMS5003;66966;-34.746;138.604;2023-05-07T05:31:01;0;0;
77777;PMS5003;66966;-34.746;138.604;2023-05-07T05:33:27;0;0;
77777;PMS5003;66966;-34.746;138.604;2023-05-07T05:35:53;1;1;
77777;PMS5003;66966;-34.746;138.604;2023-05-07T05:38:18;0;0;
77777;PMS5003;66966;-34.746;138.604;2023-05-07T05:40:43;0;0;
77777;PMS5003;66966;-34.746;138.604;2023-05-07T05:43:09;0;0;
77777;PMS5003;66966;-34.746;138.604;2023-05-07T05:45:35;0;0;
77777;PMS5003;66966;-34.746;138.604;2023-05-07T05:48:00;0;0;
77777;PMS5003;66966;-34.746;138.604;2023-05-07T05:50:25;0;0;
77777;PMS5003;66966;-34.746;138.604;2023-05-07T05:52:51;1;0;
77777;PMS5003;66966;-34.746;138.604;2023-05-07T05:55:17;1;0;
77777;PMS5003;66966;-34.746;138.604;2023-05-07T05:57:42;0;0;
77777;PMS5003;66966;-34.746;138.604;2023-05-07T06:00:08;1;0;
77777;PMS5003;66966;-34.746;138.604;2023-05-07T06:02:33;0;0;
77777;PMS5003;66966;-34.746;138.604;2023-05-07T06:04:59;0;0;
77777;PMS5003;66966;-34.746;138.604;2023-05-07T06:07:24;0;0;
77777;PMS5003;66966;-34.746;138.604;2023-05-07T06:09:50;0;0;
77777;PMS5003;66966;-34.746;138.604;2023-05-07T06:12:15;2;0;
77777;PMS5003;66966;-34.746;138.604;2023-05-07T06:14:43;0;0;
77777;PMS5003;66966;-34.746;138.604;2023-05-07T06:17:06;0;0;
77777;PMS5003;66966;-34.746;138.604;2023-05-07T06:19:32;0;0;
77777;PMS5003;66966;-34.746;138.604;2023-05-07T06:21:58;0;0;
77777;PMS5003;66966;-34.746;138.604;2023-05-07T06:24:23;0;0;
77777;PMS5003;66966;-34.746;138.604;2023-05-07T06:26:49;1;0;
77777;PMS5003;66966;-34.746;138.604;2023-05-07T06:29:14;0;0;
77777;PMS5003;66966;-34.746;138.604;2023-05-07T06:31:40;0;0;
77777;PMS5003;66966;-34.746;138.604;2023-05-07T06:34:06;0;0;
77777;PMS5003;66966;-34.746;138.604;2023-05-07T06:36:31;0;0;
77777;PMS5003;66966;-34.746;138.604;2023-05-07T06:38:56;2;2;
77777;PMS5003;66966;-34.746;138.604;2023-05-07T06:41:22;0;0;
77777;PMS5003;66966;-34.746;138.604;2023-05-07T06:43:47;0;0;
77777;PMS5003;66966;-34.746;138.604;2023-05-07T06:46:15;0;0;
77777;PMS5003;66966;-34.746;138.604;2023-05-07T06:48:38;0;0;
77777;PMS5003;66966;-34.746;138.604;2023-05-07T06:51:04;0;0;
77777;PMS5003;66966;-34.746;138.604;2023-05-07T06:53:30;0;0;
77777;PMS5003;66966;-34.746;138.604;2023-05-07T06:55:55;1;1;
77777;PMS5003;66966;-34.746;138.604;2023-05-07T06:58:21;2;2;
77777;PMS5003;66966;-34.746;138.604;2023-05-07T07:00:46;1;1;
77777;PMS5003;66966;-34.746;138.604;2023-05-07T07:03:12;1;1;
77777;PMS5003;66966;-34.746;138.604;2023-05-07T07:05:37;1;1;
77777;PMS5003;66966;-34.746;138.604;2023-05-07T07:08:03;0;0;
77777;PMS5003;66966;-34.746;138.604;2023-05-07T07:10:29;0;0;
77777;PMS5003;66966;-34.746;138.604;2023-05-07T07:12:54;1;1;
77777;PMS5003;66966;-34.746;138.604;2023-05-07T07:15:20;1;1;
77777;PMS5003;66966;-34.746;138.604;2023-05-07T07:17:45;0;0;
77777;PMS5003;66966;-34.746;138.604;2023-05-07T07:20:11;0;0;
77777;PMS5003;66966;-34.746;138.604;2023-05-07T07:22:36;0;0;
77777;PMS5003;66966;-34.746;138.604;2023-05-07T07:25:02;1;0;
77777;PMS5003;66966;-34.746;138.604;2023-05-07T07:27:27;1;0;
77777;PMS5003;66966;-34.746;138.604;2023-05-07T07:29:53;1;0;
77777;PMS5003;66966;-34.746;138.604;2023-05-07T07:32:18;1;1;
77777;PMS5003;66966;-34.746;138.604;2023-05-07T07:34:44;0;0;
77777;PMS5003;66966;-34.746;138.604;2023-05-07T07:37:09;1;1;
77777;PMS5003;66966;-34.746;138.604;2023-05-07T07:39:35;1;1;
77777;PMS5003;66966;-34.746;138.604;2023-05-07T07:42:01;0;0;
77777;PMS5003;66966;-34.746;138.604;2023-05-07T07:44:26;0;0;
77777;PMS5003;66966;-34.746;138.604;2023-05-07T07:46:52;1;0;
77777;PMS5003;66966;-34.746;138.604;2023-05-07T07:49:17;0;0;
77777;PMS5003;66966;-34.746;138.604;2023-05-07T07:51:43;0;0;
77777;PMS5003;66966;-34.746;138.604;2023-05-07T07:54:09;1;1;
77777;PMS5003;66966;-34.746;138.604;2023-05-07T07:56:34;1;1;
77777;PMS5003;66966;-34.746;138.604;2023-05-07T07:59:00;1;1;
77777;PMS5003;66966;-34.746;138.604;2023-05-07T08:01:25;1;1;
77777;PMS5003;66966;-34.746;138.604;2023-05-07T08:03:51;1;1;
77777;PMS5003;66966;-34.746;138.604;2023-05-07T08:06:16;1;1;
77777;PMS5003;66966;-34.746;138.604;2023-05-07T08:08:42;2;2;
77777;PMS5003;66966;-34.746;138.604;2023-05-07T08:11:08;3;2;
77777;PMS5003;66966;-34.746;138.604;2023-05-07T08:13:33;4;3;
77777;PMS5003;66966;-34.746;138.604;2023-05-07T08:15:59;2;2;
77777;PMS5003;66966;-34.746;138.604;2023-05-07T08:18:25;2;2;
77777;PMS5003;66966;-34.746;138.604;2023-05-07T08:20:50;2;2;
77777;PMS5003;66966;-34.746;138.604;2023-05-07T08:23:16;1;1;
77777;PMS5003;66966;-34.746;138.604;2023-05-07T08:25:41;2;2;
77777;PMS5003;66966;-34.746;138.604;2023-05-07T08:28:07;2;2;
77777;PMS5003;66966;-34.746;138.604;2023-05-07T08:30:33;1;1;
77777;PMS5003;66966;-34.746;138.604;2023-05-07T08:32:59;3;3;
77777;PMS5003;66966;-34.746;138.604;2023-05-07T08:35:24;4;3;
77777;PMS5003;66966;-34.746;138.604;2023-05-07T08:37:50;4;2;
77777;PMS5003;66966;-34.746;138.604;2023-05-07T08:40:15;4;4;
77777;PMS5003;66966;-34.746;138.604;2023-05-07T08:42:41;3;3;
77777;PMS5003;66966;-34.746;138.604;2023-05-07T08:45:08;3;2;
77777;PMS5003;66966;-34.746;138.604;2023-05-07T08:47:34;4;4;
77777;PMS5003;66966;-34.746;138.604;2023-05-07T08:49:58;4;3;
77777;PMS5003;66966;-34.746;138.604;2023-05-07T08:52:23;4;4;
77777;PMS5003;66966;-34.746;138.604;2023-05-07T08:54:49;4;3;
77777;PMS5003;66966;-34.746;138.604;2023-05-07T08:57:15;4;4;
77777;PMS5003;66966;-34.746;138.604;2023-05-07T08:59:41;3;3;
77777;PMS5003;66966;-34.746;138.604;2023-05-07T09:02:07;5;4;
77777;PMS5003;66966;-34.746;138.604;2023-05-07T09:04:32;4;4;
77777;PMS5003;66966;-34.746;138.604;2023-05-07T09:06:58;3;3;
77777;PMS5003;66966;-34.746;138.604;2023-05-07T09:09:23;3;3;
77777;PMS5003;66966;-34.746;138.604;2023-05-07T09:11:49;3;3;
77777;PMS5003;66966;-34.746;138.604;2023-05-07T09:14:15;4;3;
77777;PMS5003;66966;-34.746;138.604;2023-05-07T09:16:41;3;3;
77777;PMS5003;66966;-34.746;138.604;2023-05-07T09:19:06;4;4;
77777;PMS5003;66966;-34.746;138.604;2023-05-07T09:21:32;4;3;
77777;PMS5003;66966;-34.746;138.604;2023-05-07T09:23:58;4;4;
77777;PMS5003;66966;-34.746;138.604;2023-05-07T09:26:24;5;5;
77777;PMS5003;66966;-34.746;138.604;2023-05-07T09:28:49;4;4;
77777;PMS5003;66966;-34.746;138.604;2023-05-07T09:31:15;4;4;
77777;PMS5003;66966;-34.746;138.604;2023-05-07T09:33:41;4;4;
77777;PMS5003;66966;-34.746;138.604;2023-05-07T09:36:07;4;4;
77777;PMS5003;66966;-34.746;138.604;2023-05-07T09:38:33;6;6;
77777;PMS5003;66966;-34.746;138.604;2023-05-07T09:41:03;7;6;
77777;PMS5003;66966;-34.746;138.604;2023-05-07T09:43:24;7;6;
77777;PMS5003;66966;-34.746;138.604;2023-05-07T09:45:49;5;5;
77777;PMS5003;66966;-34.746;138.604;2023-05-07T09:48:15;6;6;
77777;PMS5003;66966;-34.746;138.604;2023-05-07T09:50:49;5;5;
77777;PMS5003;66966;-34.746;138.604;2023-05-07T09:53:07;4;4;
77777;PMS5003;66966;-34.746;138.604;2023-05-07T09:55:32;5;5;
77777;PMS5003;66966;-34.746;138.604;2023-05-07T09:57:58;4;4;
77777;PMS5003;66966;-34.746;138.604;2023-05-07T10:00:24;5;5;
77777;PMS5003;66966;-34.746;138.604;2023-05-07T10:02:51;4;4;
77777;PMS5003;66966;-34.746;138.604;2023-05-07T10:05:15;4;4;
77777;PMS5003;66966;-34.746;138.604;2023-05-07T10:07:41;6;6;
77777;PMS5003;66966;-34.746;138.604;2023-05-07T10:10:07;7;7;
77777;PMS5003;66966;-34.746;138.604;2023-05-07T10:12:32;6;5;
77777;PMS5003;66966;-34.746;138.604;2023-05-07T10:14:58;9;8;
77777;PMS5003;66966;-34.746;138.604;2023-05-07T10:17:24;7;6;
77777;PMS5003;66966;-34.746;138.604;2023-05-07T10:19:50;8;8;
77777;PMS5003;66966;-34.746;138.604;2023-05-07T10:22:15;5;5;
77777;PMS5003;66966;-34.746;138.604;2023-05-07T10:24:41;6;6;
77777;PMS5003;66966;-34.746;138.604;2023-05-07T10:27:08;6;6;
77777;PMS5003;66966;-34.746;138.604;2023-05-07T10:29:36;9;7;
77777;PMS5003;66966;-34.746;138.604;2023-05-07T10:32:01;7;5;
77777;PMS5003;66966;-34.746;138.604;2023-05-07T10:34:26;7;7;
77777;PMS5003;66966;-34.746;138.604;2023-05-07T10:36:50;7;7;
77777;PMS5003;66966;-34.746;138.604;2023-05-07T10:39:15;7;6;
77777;PMS5003;66966;-34.746;138.604;2023-05-07T10:41:41;6;6;
77777;PMS5003;66966;-34.746;138.604;2023-05-07T10:44:07;9;7;
77777;PMS5003;66966;-34.746;138.604;2023-05-07T10:46:33;8;7;
77777;PMS5003;66966;-34.746;138.604;2023-05-07T10:49:07;9;8;
77777;PMS5003;66966;-34.746;138.604;2023-05-07T10:51:24;9;8;
77777;PMS5003;66966;-34.746;138.604;2023-05-07T10:56:24;10;10;
77777;PMS5003;66966;-34.746;138.604;2023-05-07T10:58:41;9;9;
77777;PMS5003;66966;-34.746;138.604;2023-05-07T11:01:07;8;8;
77777;PMS5003;66966;-34.746;138.604;2023-05-07T11:03:32;6;6;
77777;PMS5003;66966;-34.746;138.604;2023-05-07T11:06:09;10;9;
77777;PMS5003;66966;-34.746;138.604;2023-05-07T11:08:24;8;8;
77777;PMS5003;66966;-34.746;138.604;2023-05-07T11:10:50;8;8;
77777;PMS5003;66966;-34.746;138.604;2023-05-07T11:13:16;10;9;
77777;PMS5003;66966;-34.746;138.604;2023-05-07T11:15:42;9;8;
77777;PMS5003;66966;-34.746;138.604;2023-05-07T11:18:07;11;9;
77777;PMS5003;66966;-34.746;138.604;2023-05-07T11:22:59;12;11;
77777;PMS5003;66966;-34.746;138.604;2023-05-07T11:25:24;12;11;
77777;PMS5003;66966;-34.746;138.604;2023-05-07T11:27:49;11;10;
77777;PMS5003;66966;-34.746;138.604;2023-05-07T11:30:17;7;7;
77777;PMS5003;66966;-34.746;138.604;2023-05-07T11:32:41;11;11;
77777;PMS5003;66966;-34.746;138.604;2023-05-07T11:35:07;11;8;
77777;PMS5003;66966;-34.746;138.604;2023-05-07T11:37:32;9;9;
77777;PMS5003;66966;-34.746;138.604;2023-05-07T11:40:03;11;11;
77777;PMS5003;66966;-34.746;138.604;2023-05-07T11:42:27;13;11;
77777;PMS5003;66966;-34.746;138.604;2023-05-07T11:44:50;15;13;
77777;PMS5003;66966;-34.746;138.604;2023-05-07T11:47:17;15;13;
77777;PMS5003;66966;-34.746;138.604;2023-05-07T11:49:41;15;13;
77777;PMS5003;66966;-34.746;138.604;2023-05-07T11:52:07;17;17;
77777;PMS5003;66966;-34.746;138.604;2023-05-07T11:54:35;16;16;
77777;PMS5003;66966;-34.746;138.604;2023-05-07T11:56:58;20;18;
77777;PMS5003;66966;-34.746;138.604;2023-05-07T11:59:24;20;20;
77777;PMS5003;66966;-34.746;138.604;2023-05-07T12:01:49;23;21;
77777;PMS5003;66966;-34.746;138.604;2023-05-07T12:04:19;14;14;
77777;PMS5003;66966;-34.746;138.604;2023-05-07T12:06:41;14;14;
77777;PMS5003;66966;-34.746;138.604;2023-05-07T12:09:07;17;16;
77777;PMS5003;66966;-34.746;138.604;2023-05-07T12:11:32;14;14;
77777;PMS5003;66966;-34.746;138.604;2023-05-07T12:13:58;25;24;
77777;PMS5003;66966;-34.746;138.604;2023-05-07T12:16:24;19;16;
77777;PMS5003;66966;-34.746;138.604;2023-05-07T12:18:49;18;16;
77777;PMS5003;66966;-34.746;138.604;2023-05-07T12:21:15;19;16;
77777;PMS5003;66966;-34.746;138.604;2023-05-07T12:23:40;18;17;
77777;PMS5003;66966;-34.746;138.604;2023-05-07T12:26:06;26;23;
77777;PMS5003;66966;-34.746;138.604;2023-05-07T12:28:36;27;25;
77777;PMS5003;66966;-34.746;138.604;2023-05-07T12:30:58;18;17;
77777;PMS5003;66966;-34.746;138.604;2023-05-07T12:33:24;23;21;
77777;PMS5003;66966;-34.746;138.604;2023-05-07T12:35:48;22;20;
77777;PMS5003;66966;-34.746;138.604;2023-05-07T12:38:15;23;22;
77777;PMS5003;66966;-34.746;138.604;2023-05-07T12:40:41;29;26;
77777;PMS5003;66966;-34.746;138.604;2023-05-07T12:43:06;34;32;
77777;PMS5003;66966;-34.746;138.604;2023-05-07T12:45:30;47;41;
77777;PMS5003;66966;-34.746;138.604;2023-05-07T12:47:56;45;39;
77777;PMS5003;66966;-34.746;138.604;2023-05-07T12:50:22;46;39;
77777;PMS5003;66966;-34.746;138.604;2023-05-07T12:52:47;42;40;
77777;PMS5003;66966;-34.746;138.604;2023-05-07T12:55:13;47;44;
77777;PMS5003;66966;-34.746;138.604;2023-05-07T12:57:38;51;50;
77777;PMS5003;66966;-34.746;138.604;2023-05-07T13:00:04;48;47;
77777;PMS5003;66966;-34.746;138.604;2023-05-07T13:02:32;50;45;
77777;PMS5003;66966;-34.746;138.604;2023-05-07T13:04:54;47;46;
77777;PMS5003;66966;-34.746;138.604;2023-05-07T13:07:19;44;41;
77777;PMS5003;66966;-34.746;138.604;2023-05-07T13:09:44;49;47;
77777;PMS5003;66966;-34.746;138.604;2023-05-07T13:12:09;44;38;
77777;PMS5003;66966;-34.746;138.604;2023-05-07T13:14:35;43;39;
77777;PMS5003;66966;-34.746;138.604;2023-05-07T13:17:01;42;38;
77777;PMS5003;66966;-34.746;138.604;2023-05-07T13:19:26;40;37;
77777;PMS5003;66966;-34.746;138.604;2023-05-07T13:21:51;36;34;
77777;PMS5003;66966;-34.746;138.604;2023-05-07T13:24:16;35;33;
77777;PMS5003;66966;-34.746;138.604;2023-05-07T13:26:42;42;41;
77777;PMS5003;66966;-34.746;138.604;2023-05-07T13:29:07;40;35;
77777;PMS5003;66966;-34.746;138.604;2023-05-07T13:31:33;32;31;
77777;PMS5003;66966;-34.746;138.604;2023-05-07T13:33:58;37;35;
77777;PMS5003;66966;-34.746;138.604;2023-05-07T13:36:23;28;28;
77777;PMS5003;66966;-34.746;138.604;2023-05-07T13:38:48;37;36;
77777;PMS5003;66966;-34.746;138.604;2023-05-07T13:41:13;35;32;
77777;PMS5003;66966;-34.746;138.604;2023-05-07T13:43:39;33;30;
77777;PMS5003;66966;-34.746;138.604;2023-05-07T13:46:04;37;34;
77777;PMS5003;66966;-34.746;138.604;2023-05-07T13:48:30;35;35;
77777;PMS5003;66966;-34.746;138.604;2023-05-07T13:50:56;37;36;
77777;PMS5003;66966;-34.746;138.604;2023-05-07T13:53:22;38;37;
77777;PMS5003;66966;-34.746;138.604;2023-05-07T13:55:48;30;30;
77777;PMS5003;66966;-34.746;138.604;2023-05-07T13:58:13;32;31;
77777;PMS5003;66966;-34.746;138.604;2023-05-07T14:00:38;32;32;
77777;PMS5003;66966;-34.746;138.604;2023-05-07T14:03:04;31;29;
77777;PMS5003;66966;-34.746;138.604;2023-05-07T14:05:29;28;28;
77777;PMS5003;66966;-34.746;138.604;2023-05-07T14:07:55;31;29;
77777;PMS5003;66966;-34.746;138.604;2023-05-07T14:10:20;28;27;
77777;PMS5003;66966;-34.746;138.604;2023-05-07T14:12:46;31;29;
77777;PMS5003;66966;-34.746;138.604;2023-05-07T14:15:11;29;29;
77777;PMS5003;66966;-34.746;138.604;2023-05-07T14:17:37;30;29;
77777;PMS5003;66966;-34.746;138.604;2023-05-07T14:20:03;27;26;
77777;PMS5003;66966;-34.746;138.604;2023-05-07T14:22:28;32;29;
77777;PMS5003;66966;-34.746;138.604;2023-05-07T14:24:54;25;25;
77777;PMS5003;66966;-34.746;138.604;2023-05-07T14:27:19;25;24;
77777;PMS5003;66966;-34.746;138.604;2023-05-07T14:29:44;25;22;
77777;PMS5003;66966;-34.746;138.604;2023-05-07T14:32:10;22;21;
77777;PMS5003;66966;-34.746;138.604;2023-05-07T14:34:35;22;20;
77777;PMS5003;66966;-34.746;138.604;2023-05-07T14:37:00;22;21;
77777;PMS5003;66966;-34.746;138.604;2023-05-07T14:39:26;23;21;
77777;PMS5003;66966;-34.746;138.604;2023-05-07T14:41:51;27;24;
77777;PMS5003;66966;-34.746;138.604;2023-05-07T14:44:17;24;23;
77777;PMS5003;66966;-34.746;138.604;2023-05-07T14:46:42;20;20;
77777;PMS5003;66966;-34.746;138.604;2023-05-07T14:49:07;26;24;
77777;PMS5003;66966;-34.746;138.604;2023-05-07T14:51:32;23;23;
77777;PMS5003;66966;-34.746;138.604;2023-05-07T14:53:58;22;22;
77777;PMS5003;66966;-34.746;138.604;2023-05-07T14:56:23;18;18;
77777;PMS5003;66966;-34.746;138.604;2023-05-07T14:58:49;24;22;
77777;PMS5003;66966;-34.746;138.604;2023-05-07T15:01:14;21;20;
77777;PMS5003;66966;-34.746;138.604;2023-05-07T15:03:39;24;20;
77777;PMS5003;66966;-34.746;138.604;2023-05-07T15:06:04;24;23;
77777;PMS5003;66966;-34.746;138.604;2023-05-07T15:08:30;18;17;
77777;PMS5003;66966;-34.746;138.604;2023-05-07T15:10:56;20;20;
77777;PMS5003;66966;-34.746;138.604;2023-05-07T15:13:22;20;19;
77777;PMS5003;66966;-34.746;138.604;2023-05-07T15:15:47;18;18;
77777;PMS5003;66966;-34.746;138.604;2023-05-07T15:18:12;20;18;
77777;PMS5003;66966;-34.746;138.604;2023-05-07T15:20:38;24;23;
77777;PMS5003;66966;-34.746;138.604;2023-05-07T15:23:03;18;18;
77777;PMS5003;66966;-34.746;138.604;2023-05-07T15:25:28;21;20;
77777;PMS5003;66966;-34.746;138.604;2023-05-07T15:27:53;22;18;
77777;PMS5003;66966;-34.746;138.604;2023-05-07T15:30:19;22;22;
77777;PMS5003;66966;-34.746;138.604;2023-05-07T15:32:45;20;19;
77777;PMS5003;66966;-34.746;138.604;2023-05-07T15:35:10;20;19;
77777;PMS5003;66966;-34.746;138.604;2023-05-07T15:37:35;21;19;
77777;PMS5003;66966;-34.746;138.604;2023-05-07T15:40:00;23;22;
77777;PMS5003;66966;-34.746;138.604;2023-05-07T15:42:26;20;19;
77777;PMS5003;66966;-34.746;138.604;2023-05-07T15:44:52;19;19;
77777;PMS5003;66966;-34.746;138.604;2023-05-07T15:47:17;26;23;